Terminal Aerodrome Forecast
Issued by NWS Chicago, IL

Home | Current Version | Previous Version | Graphics & Text | Print | Product List | Glossary On
Versions: 1 2 3 4 5 6 7 8 9 10 11 12 13 14 15 16 17 18 19 20 21 22 23 24 25 26 27
000
FTUS43 KLOT 221501 AAB
TAFRFD
TAF AMD
KRFD 221501Z 2215/2312 19008KT 1SM BR BKN002
      TEMPO 2215/2216 1/2SM FG VV002
     FM221600 21010KT 3SM BR BKN005
     FM221800 20015G25KT P6SM SKC
     FM222300 23010KT P6SM SKC
     FM230900 30008KT 3SM BR SCT250=

USA.gov is the U.S. government's official web portal to all federal, state and local government web resources and services.